sensor_id;sensor_type;location;lat;lon;timestamp;P1;durP1;ratioP1;P2;durP2;ratioP2
71176;SDS011;58877;51.992;4.504;2023-05-19T00:00:15;4.88;;;4.87;;
71176;SDS011;58877;51.992;4.504;2023-05-19T00:02:43;4.59;;;4.58;;
71176;SDS011;58877;51.992;4.504;2023-05-19T00:05:10;4.62;;;4.62;;
71176;SDS011;58877;51.992;4.504;2023-05-19T00:07:37;4.59;;;4.58;;
71176;SDS011;58877;51.992;4.504;2023-05-19T00:10:04;4.76;;;4.74;;
71176;SDS011;58877;51.992;4.504;2023-05-19T00:12:30;4.41;;;4.40;;
71176;SDS011;58877;51.992;4.504;2023-05-19T00:14:56;4.29;;;4.29;;
71176;SDS011;58877;51.992;4.504;2023-05-19T00:17:22;4.65;;;4.64;;
71176;SDS011;58877;51.992;4.504;2023-05-19T00:19:48;4.53;;;4.48;;
71176;SDS011;58877;51.992;4.504;2023-05-19T00:22:14;3.98;;;3.95;;
71176;SDS011;58877;51.992;4.504;2023-05-19T00:24:40;4.02;;;4.01;;
71176;SDS011;58877;51.992;4.504;2023-05-19T00:27:06;4.04;;;4.03;;
71176;SDS011;58877;51.992;4.504;2023-05-19T00:29:34;4.06;;;4.05;;
71176;SDS011;58877;51.992;4.504;2023-05-19T00:32:00;4.06;;;4.03;;
71176;SDS011;58877;51.992;4.504;2023-05-19T00:34:26;3.93;;;3.91;;
71176;SDS011;58877;51.992;4.504;2023-05-19T00:36:51;4.23;;;4.19;;
71176;SDS011;58877;51.992;4.504;2023-05-19T00:39:17;4.12;;;4.06;;
71176;SDS011;58877;51.992;4.504;2023-05-19T00:41:43;4.01;;;3.99;;
71176;SDS011;58877;51.992;4.504;2023-05-19T00:44:09;3.92;;;3.90;;
71176;SDS011;58877;51.992;4.504;2023-05-19T00:46:34;3.78;;;3.74;;
71176;SDS011;58877;51.992;4.504;2023-05-19T00:49:01;3.99;;;3.93;;
71176;SDS011;58877;51.992;4.504;2023-05-19T00:51:27;4.26;;;4.22;;
71176;SDS011;58877;51.992;4.504;2023-05-19T00:53:55;3.93;;;3.90;;
71176;SDS011;58877;51.992;4.504;2023-05-19T00:56:21;4.19;;;4.15;;
71176;SDS011;58877;51.992;4.504;2023-05-19T00:58:48;3.97;;;3.95;;
71176;SDS011;58877;51.992;4.504;2023-05-19T01:01:16;4.02;;;4.02;;
71176;SDS011;58877;51.992;4.504;2023-05-19T01:03:45;4.14;;;4.14;;
71176;SDS011;58877;51.992;4.504;2023-05-19T01:06:12;4.01;;;3.98;;
71176;SDS011;58877;51.992;4.504;2023-05-19T01:08:39;3.99;;;3.97;;
71176;SDS011;58877;51.992;4.504;2023-05-19T01:11:05;4.32;;;4.27;;
71176;SDS011;58877;51.992;4.504;2023-05-19T01:13:34;4.21;;;4.11;;
71176;SDS011;58877;51.992;4.504;2023-05-19T01:18:43;4.47;;;4.43;;
71176;SDS011;58877;51.992;4.504;2023-05-19T01:24:07;4.30;;;4.25;;
71176;SDS011;58877;51.992;4.504;2023-05-19T01:27:22;4.30;;;4.29;;
71176;SDS011;58877;51.992;4.504;2023-05-19T01:29:50;4.37;;;4.36;;
71176;SDS011;58877;51.992;4.504;2023-05-19T01:32:42;4.14;;;4.10;;
71176;SDS011;58877;51.992;4.504;2023-05-19T01:35:12;3.98;;;3.98;;
71176;SDS011;58877;51.992;4.504;2023-05-19T01:37:40;4.07;;;4.04;;
71176;SDS011;58877;51.992;4.504;2023-05-19T01:40:09;4.03;;;4.01;;
71176;SDS011;58877;51.992;4.504;2023-05-19T01:42:37;4.38;;;4.38;;
71176;SDS011;58877;51.992;4.504;2023-05-19T01:45:05;4.05;;;4.05;;
71176;SDS011;58877;51.992;4.504;2023-05-19T01:47:37;4.07;;;4.06;;
71176;SDS011;58877;51.992;4.504;2023-05-19T01:50:08;4.53;;;4.51;;
71176;SDS011;58877;51.992;4.504;2023-05-19T01:52:35;4.39;;;4.35;;
71176;SDS011;58877;51.992;4.504;2023-05-19T01:55:02;4.01;;;4.01;;
71176;SDS011;58877;51.992;4.504;2023-05-19T01:57:34;3.84;;;3.84;;
71176;SDS011;58877;51.992;4.504;2023-05-19T02:03:25;3.96;;;3.96;;
71176;SDS011;58877;51.992;4.504;2023-05-19T02:09:15;4.02;;;4.00;;
71176;SDS011;58877;51.992;4.504;2023-05-19T02:15:03;4.51;;;4.49;;
71176;SDS011;58877;51.992;4.504;2023-05-19T02:17:37;3.90;;;3.90;;
71176;SDS011;58877;51.992;4.504;2023-05-19T02:20:12;3.94;;;3.93;;
71176;SDS011;58877;51.992;4.504;2023-05-19T02:22:39;4.13;;;4.12;;
71176;SDS011;58877;51.992;4.504;2023-05-19T02:25:06;4.42;;;4.42;;
71176;SDS011;58877;51.992;4.504;2023-05-19T02:27:34;4.24;;;4.22;;
71176;SDS011;58877;51.992;4.504;2023-05-19T02:30:04;4.46;;;4.44;;
71176;SDS011;58877;51.992;4.504;2023-05-19T02:32:32;4.30;;;4.28;;
71176;SDS011;58877;51.992;4.504;2023-05-19T02:35:01;4.41;;;4.39;;
71176;SDS011;58877;51.992;4.504;2023-05-19T02:37:28;4.21;;;4.18;;
71176;SDS011;58877;51.992;4.504;2023-05-19T02:39:54;4.43;;;4.40;;
71176;SDS011;58877;51.992;4.504;2023-05-19T02:42:20;4.28;;;4.26;;
71176;SDS011;58877;51.992;4.504;2023-05-19T02:44:48;4.60;;;4.58;;
71176;SDS011;58877;51.992;4.504;2023-05-19T02:47:14;4.87;;;4.86;;
71176;SDS011;58877;51.992;4.504;2023-05-19T02:49:42;4.54;;;4.54;;
71176;SDS011;58877;51.992;4.504;2023-05-19T02:52:09;4.78;;;4.77;;
71176;SDS011;58877;51.992;4.504;2023-05-19T02:54:37;4.91;;;4.89;;
71176;SDS011;58877;51.992;4.504;2023-05-19T02:57:04;4.84;;;4.82;;
71176;SDS011;58877;51.992;4.504;2023-05-19T02:59:33;4.98;;;4.95;;
71176;SDS011;58877;51.992;4.504;2023-05-19T03:01:59;4.51;;;4.49;;
71176;SDS011;58877;51.992;4.504;2023-05-19T03:04:26;4.91;;;4.89;;
71176;SDS011;58877;51.992;4.504;2023-05-19T03:06:53;4.92;;;4.90;;
71176;SDS011;58877;51.992;4.504;2023-05-19T03:09:21;4.87;;;4.85;;
71176;SDS011;58877;51.992;4.504;2023-05-19T03:11:47;4.66;;;4.64;;
71176;SDS011;58877;51.992;4.504;2023-05-19T03:14:13;5.10;;;5.07;;
71176;SDS011;58877;51.992;4.504;2023-05-19T03:16:41;4.92;;;4.91;;
71176;SDS011;58877;51.992;4.504;2023-05-19T03:19:07;5.10;;;5.09;;
71176;SDS011;58877;51.992;4.504;2023-05-19T03:21:42;4.73;;;4.72;;
71176;SDS011;58877;51.992;4.504;2023-05-19T03:24:08;4.93;;;4.92;;
71176;SDS011;58877;51.992;4.504;2023-05-19T03:26:33;4.65;;;4.62;;
71176;SDS011;58877;51.992;4.504;2023-05-19T03:28:59;5.06;;;5.02;;
71176;SDS011;58877;51.992;4.504;2023-05-19T03:31:25;5.08;;;5.03;;
71176;SDS011;58877;51.992;4.504;2023-05-19T03:33:51;5.11;;;5.08;;
71176;SDS011;58877;51.992;4.504;2023-05-19T03:36:20;5.13;;;5.12;;
71176;SDS011;58877;51.992;4.504;2023-05-19T03:38:49;5.03;;;5.02;;
71176;SDS011;58877;51.992;4.504;2023-05-19T03:41:14;5.12;;;5.12;;
71176;SDS011;58877;51.992;4.504;2023-05-19T03:43:40;5.28;;;5.28;;
71176;SDS011;58877;51.992;4.504;2023-05-19T03:46:08;5.24;;;5.22;;
71176;SDS011;58877;51.992;4.504;2023-05-19T03:48:34;4.83;;;4.80;;
71176;SDS011;58877;51.992;4.504;2023-05-19T03:50:59;5.01;;;4.99;;
71176;SDS011;58877;51.992;4.504;2023-05-19T03:53:25;4.67;;;4.65;;
71176;SDS011;58877;51.992;4.504;2023-05-19T03:55:51;5.22;;;5.18;;
71176;SDS011;58877;51.992;4.504;2023-05-19T03:58:16;5.18;;;5.16;;
71176;SDS011;58877;51.992;4.504;2023-05-19T04:00:42;5.39;;;5.32;;
71176;SDS011;58877;51.992;4.504;2023-05-19T04:03:08;5.21;;;5.17;;
71176;SDS011;58877;51.992;4.504;2023-05-19T04:05:34;5.33;;;5.33;;
71176;SDS011;58877;51.992;4.504;2023-05-19T04:07:59;5.07;;;5.07;;
71176;SDS011;58877;51.992;4.504;2023-05-19T04:10:25;5.36;;;5.35;;
71176;SDS011;58877;51.992;4.504;2023-05-19T04:12:51;5.15;;;5.13;;
71176;SDS011;58877;51.992;4.504;2023-05-19T04:15:17;5.38;;;5.38;;
71176;SDS011;58877;51.992;4.504;2023-05-19T04:17:42;5.60;;;5.60;;
71176;SDS011;58877;51.992;4.504;2023-05-19T04:20:09;5.25;;;5.25;;
71176;SDS011;58877;51.992;4.504;2023-05-19T04:22:35;5.62;;;5.61;;
71176;SDS011;58877;51.992;4.504;2023-05-19T04:25:00;5.24;;;5.23;;
71176;SDS011;58877;51.992;4.504;2023-05-19T04:27:28;5.37;;;5.34;;
71176;SDS011;58877;51.992;4.504;2023-05-19T04:29:56;5.67;;;5.61;;
71176;SDS011;58877;51.992;4.504;2023-05-19T04:32:22;5.41;;;5.41;;
71176;SDS011;58877;51.992;4.504;2023-05-19T04:34:48;5.33;;;5.33;;
71176;SDS011;58877;51.992;4.504;2023-05-19T04:37:13;5.27;;;5.27;;
71176;SDS011;58877;51.992;4.504;2023-05-19T04:39:44;5.24;;;5.22;;
71176;SDS011;58877;51.992;4.504;2023-05-19T04:42:10;5.45;;;5.44;;
71176;SDS011;58877;51.992;4.504;2023-05-19T04:44:39;4.96;;;4.96;;
71176;SDS011;58877;51.992;4.504;2023-05-19T04:47:08;5.18;;;5.15;;
71176;SDS011;58877;51.992;4.504;2023-05-19T04:49:34;5.38;;;5.35;;
71176;SDS011;58877;51.992;4.504;2023-05-19T04:52:04;5.14;;;5.09;;
71176;SDS011;58877;51.992;4.504;2023-05-19T04:54:33;5.18;;;5.14;;
71176;SDS011;58877;51.992;4.504;2023-05-19T04:56:59;5.42;;;5.37;;
71176;SDS011;58877;51.992;4.504;2023-05-19T04:59:25;4.93;;;4.91;;
71176;SDS011;58877;51.992;4.504;2023-05-19T05:01:54;5.29;;;5.25;;
71176;SDS011;58877;51.992;4.504;2023-05-19T05:04:30;5.46;;;5.45;;
71176;SDS011;58877;51.992;4.504;2023-05-19T05:07:04;5.74;;;5.71;;
71176;SDS011;58877;51.992;4.504;2023-05-19T05:09:34;5.31;;;5.28;;
71176;SDS011;58877;51.992;4.504;2023-05-19T05:12:01;5.35;;;5.32;;
71176;SDS011;58877;51.992;4.504;2023-05-19T05:14:27;5.50;;;5.48;;
71176;SDS011;58877;51.992;4.504;2023-05-19T05:16:53;5.28;;;5.27;;
71176;SDS011;58877;51.992;4.504;2023-05-19T05:19:20;5.40;;;5.39;;
71176;SDS011;58877;51.992;4.504;2023-05-19T05:21:46;5.56;;;5.55;;
71176;SDS011;58877;51.992;4.504;2023-05-19T05:24:12;5.42;;;5.42;;
71176;SDS011;58877;51.992;4.504;2023-05-19T05:26:38;5.88;;;5.87;;
71176;SDS011;58877;51.992;4.504;2023-05-19T05:29:04;5.70;;;5.69;;
71176;SDS011;58877;51.992;4.504;2023-05-19T05:31:33;5.88;;;5.88;;
71176;SDS011;58877;51.992;4.504;2023-05-19T05:33:59;5.70;;;5.70;;
71176;SDS011;58877;51.992;4.504;2023-05-19T05:36:25;5.66;;;5.64;;
71176;SDS011;58877;51.992;4.504;2023-05-19T05:38:51;5.88;;;5.86;;
71176;SDS011;58877;51.992;4.504;2023-05-19T05:41:22;5.72;;;5.71;;
71176;SDS011;58877;51.992;4.504;2023-05-19T05:43:52;5.67;;;5.65;;
71176;SDS011;58877;51.992;4.504;2023-05-19T05:50:36;5.85;;;5.82;;
71176;SDS011;58877;51.992;4.504;2023-05-19T05:53:05;6.23;;;6.20;;
71176;SDS011;58877;51.992;4.504;2023-05-19T05:55:37;5.95;;;5.92;;
71176;SDS011;58877;51.992;4.504;2023-05-19T05:58:04;5.88;;;5.87;;
71176;SDS011;58877;51.992;4.504;2023-05-19T06:00:30;6.05;;;6.04;;
71176;SDS011;58877;51.992;4.504;2023-05-19T06:03:01;5.96;;;5.93;;
71176;SDS011;58877;51.992;4.504;2023-05-19T06:05:43;6.15;;;6.07;;
71176;SDS011;58877;51.992;4.504;2023-05-19T06:08:26;6.36;;;6.25;;
71176;SDS011;58877;51.992;4.504;2023-05-19T06:10:58;6.21;;;6.13;;
71176;SDS011;58877;51.992;4.504;2023-05-19T06:13:36;5.90;;;5.83;;
71176;SDS011;58877;51.992;4.504;2023-05-19T06:16:03;6.07;;;6.02;;
71176;SDS011;58877;51.992;4.504;2023-05-19T06:18:32;6.24;;;6.22;;
71176;SDS011;58877;51.992;4.504;2023-05-19T06:21:02;6.39;;;6.38;;
71176;SDS011;58877;51.992;4.504;2023-05-19T06:26:23;5.87;;;5.81;;
71176;SDS011;58877;51.992;4.504;2023-05-19T06:29:11;5.43;;;5.40;;
71176;SDS011;58877;51.992;4.504;2023-05-19T06:31:53;5.82;;;5.81;;
71176;SDS011;58877;51.992;4.504;2023-05-19T06:34:19;5.39;;;5.37;;
71176;SDS011;58877;51.992;4.504;2023-05-19T06:36:45;6.06;;;6.05;;
71176;SDS011;58877;51.992;4.504;2023-05-19T06:39:14;6.17;;;6.15;;
71176;SDS011;58877;51.992;4.504;2023-05-19T06:41:43;5.76;;;5.76;;
71176;SDS011;58877;51.992;4.504;2023-05-19T06:46:57;6.20;;;6.18;;
71176;SDS011;58877;51.992;4.504;2023-05-19T06:52:23;5.43;;;5.40;;
71176;SDS011;58877;51.992;4.504;2023-05-19T06:57:45;6.02;;;5.96;;
71176;SDS011;58877;51.992;4.504;2023-05-19T07:00:25;6.25;;;6.23;;
71176;SDS011;58877;51.992;4.504;2023-05-19T07:03:15;5.59;;;5.58;;
71176;SDS011;58877;51.992;4.504;2023-05-19T07:05:53;5.79;;;5.77;;
71176;SDS011;58877;51.992;4.504;2023-05-19T07:08:26;5.68;;;5.66;;
71176;SDS011;58877;51.992;4.504;2023-05-19T07:10:52;6.01;;;5.98;;
71176;SDS011;58877;51.992;4.504;2023-05-19T07:13:58;6.02;;;6.02;;
71176;SDS011;58877;51.992;4.504;2023-05-19T07:16:24;5.96;;;5.96;;
71176;SDS011;58877;51.992;4.504;2023-05-19T07:18:53;6.02;;;6.02;;
71176;SDS011;58877;51.992;4.504;2023-05-19T07:21:19;6.45;;;6.44;;
71176;SDS011;58877;51.992;4.504;2023-05-19T07:23:45;5.86;;;5.86;;
71176;SDS011;58877;51.992;4.504;2023-05-19T07:26:10;5.81;;;5.81;;
71176;SDS011;58877;51.992;4.504;2023-05-19T07:28:36;5.77;;;5.77;;
71176;SDS011;58877;51.992;4.504;2023-05-19T07:31:05;5.84;;;5.84;;
71176;SDS011;58877;51.992;4.504;2023-05-19T07:33:34;5.63;;;5.62;;
71176;SDS011;58877;51.992;4.504;2023-05-19T07:36:00;5.54;;;5.52;;
71176;SDS011;58877;51.992;4.504;2023-05-19T07:38:48;5.60;;;5.54;;
71176;SDS011;58877;51.992;4.504;2023-05-19T07:41:30;5.30;;;5.23;;
71176;SDS011;58877;51.992;4.504;2023-05-19T07:44:33;5.28;;;5.25;;
71176;SDS011;58877;51.992;4.504;2023-05-19T07:47:02;5.07;;;5.06;;
71176;SDS011;58877;51.992;4.504;2023-05-19T07:49:33;5.09;;;5.09;;
71176;SDS011;58877;51.992;4.504;2023-05-19T07:51:59;4.83;;;4.80;;
71176;SDS011;58877;51.992;4.504;2023-05-19T07:54:35;4.00;;;3.99;;
71176;SDS011;58877;51.992;4.504;2023-05-19T07:57:08;4.50;;;4.50;;
71176;SDS011;58877;51.992;4.504;2023-05-19T07:59:34;4.46;;;4.46;;
71176;SDS011;58877;51.992;4.504;2023-05-19T08:02:01;4.35;;;4.35;;
71176;SDS011;58877;51.992;4.504;2023-05-19T08:04:33;4.68;;;4.68;;
71176;SDS011;58877;51.992;4.504;2023-05-19T08:07:02;4.58;;;4.58;;
71176;SDS011;58877;51.992;4.504;2023-05-19T08:09:35;4.07;;;4.07;;
71176;SDS011;58877;51.992;4.504;2023-05-19T08:12:06;3.40;;;3.40;;
71176;SDS011;58877;51.992;4.504;2023-05-19T08:14:40;3.81;;;3.81;;
71176;SDS011;58877;51.992;4.504;2023-05-19T08:17:09;4.10;;;4.09;;
71176;SDS011;58877;51.992;4.504;2023-05-19T08:19:35;4.13;;;4.10;;
71176;SDS011;58877;51.992;4.504;2023-05-19T08:22:06;3.83;;;3.81;;
71176;SDS011;58877;51.992;4.504;2023-05-19T08:24:37;3.53;;;3.51;;
71176;SDS011;58877;51.992;4.504;2023-05-19T08:27:09;4.29;;;4.27;;
71176;SDS011;58877;51.992;4.504;2023-05-19T08:29:43;3.65;;;3.62;;
71176;SDS011;58877;51.992;4.504;2023-05-19T08:32:17;3.87;;;3.82;;
71176;SDS011;58877;51.992;4.504;2023-05-19T08:34:52;3.65;;;3.59;;
71176;SDS011;58877;51.992;4.504;2023-05-19T08:37:24;3.74;;;3.69;;
71176;SDS011;58877;51.992;4.504;2023-05-19T08:39:52;3.80;;;3.72;;
71176;SDS011;58877;51.992;4.504;2023-05-19T08:42:21;3.13;;;3.09;;
71176;SDS011;58877;51.992;4.504;2023-05-19T08:45:01;3.47;;;3.41;;
71176;SDS011;58877;51.992;4.504;2023-05-19T08:47:30;3.68;;;3.60;;
71176;SDS011;58877;51.992;4.504;2023-05-19T08:50:01;3.90;;;3.78;;
71176;SDS011;58877;51.992;4.504;2023-05-19T08:53:15;3.52;;;3.43;;
71176;SDS011;58877;51.992;4.504;2023-05-19T08:55:39;3.27;;;3.21;;
71176;SDS011;58877;51.992;4.504;2023-05-19T08:58:23;3.22;;;3.10;;
71176;SDS011;58877;51.992;4.504;2023-05-19T09:00:50;2.94;;;2.86;;
71176;SDS011;58877;51.992;4.504;2023-05-19T09:03:29;3.26;;;3.19;;
71176;SDS011;58877;51.992;4.504;2023-05-19T09:06:18;3.13;;;3.05;;
71176;SDS011;58877;51.992;4.504;2023-05-19T09:08:53;3.32;;;3.25;;
71176;SDS011;58877;51.992;4.504;2023-05-19T09:11:22;3.30;;;3.20;;
71176;SDS011;58877;51.992;4.504;2023-05-19T09:13:48;2.95;;;2.81;;
71176;SDS011;58877;51.992;4.504;2023-05-19T09:16:26;2.54;;;2.42;;
71176;SDS011;58877;51.992;4.504;2023-05-19T09:19:00;2.50;;;2.44;;
71176;SDS011;58877;51.992;4.504;2023-05-19T09:21:27;2.80;;;2.70;;
71176;SDS011;58877;51.992;4.504;2023-05-19T09:24:09;3.04;;;2.91;;
71176;SDS011;58877;51.992;4.504;2023-05-19T09:26:38;2.29;;;2.18;;
71176;SDS011;58877;51.992;4.504;2023-05-19T09:29:15;2.76;;;2.66;;
71176;SDS011;58877;51.992;4.504;2023-05-19T09:31:58;2.73;;;2.65;;
71176;SDS011;58877;51.992;4.504;2023-05-19T09:34:31;2.46;;;2.37;;
71176;SDS011;58877;51.992;4.504;2023-05-19T09:37:05;2.39;;;2.30;;
71176;SDS011;58877;51.992;4.504;2023-05-19T09:39:34;2.29;;;2.18;;
71176;SDS011;58877;51.992;4.504;2023-05-19T09:42:03;2.82;;;2.64;;
71176;SDS011;58877;51.992;4.504;2023-05-19T09:44:33;2.83;;;2.65;;
71176;SDS011;58877;51.992;4.504;2023-05-19T09:47:00;2.38;;;2.26;;
71176;SDS011;58877;51.992;4.504;2023-05-19T09:49:26;2.51;;;2.37;;
71176;SDS011;58877;51.992;4.504;2023-05-19T09:52:02;2.81;;;2.63;;
71176;SDS011;58877;51.992;4.504;2023-05-19T09:54:32;2.49;;;2.35;;
71176;SDS011;58877;51.992;4.504;2023-05-19T09:57:09;2.48;;;2.30;;
71176;SDS011;58877;51.992;4.504;2023-05-19T09:59:41;2.72;;;2.50;;
71176;SDS011;58877;51.992;4.504;2023-05-19T10:02:20;2.72;;;2.50;;
71176;SDS011;58877;51.992;4.504;2023-05-19T10:04:51;2.47;;;2.29;;
71176;SDS011;58877;51.992;4.504;2023-05-19T10:07:52;2.50;;;2.36;;
71176;SDS011;58877;51.992;4.504;2023-05-19T10:10:24;2.86;;;2.70;;
71176;SDS011;58877;51.992;4.504;2023-05-19T10:13:02;2.56;;;2.42;;
71176;SDS011;58877;51.992;4.504;2023-05-19T10:15:28;2.74;;;2.60;;
71176;SDS011;58877;51.992;4.504;2023-05-19T10:18:00;2.58;;;2.47;;
71176;SDS011;58877;51.992;4.504;2023-05-19T10:20:28;2.70;;;2.63;;
71176;SDS011;58877;51.992;4.504;2023-05-19T10:23:10;2.52;;;2.46;;
71176;SDS011;58877;51.992;4.504;2023-05-19T10:25:39;2.98;;;2.80;;
71176;SDS011;58877;51.992;4.504;2023-05-19T10:28:28;3.07;;;2.87;;
71176;SDS011;58877;51.992;4.504;2023-05-19T10:31:05;3.11;;;2.93;;
71176;SDS011;58877;51.992;4.504;2023-05-19T10:33:46;2.92;;;2.82;;
71176;SDS011;58877;51.992;4.504;2023-05-19T10:37:26;2.60;;;2.54;;
71176;SDS011;58877;51.992;4.504;2023-05-19T10:40:16;2.44;;;2.38;;
71176;SDS011;58877;51.992;4.504;2023-05-19T10:45:46;2.81;;;2.71;;
71176;SDS011;58877;51.992;4.504;2023-05-19T10:48:21;2.30;;;2.24;;
71176;SDS011;58877;51.992;4.504;2023-05-19T10:50:53;2.37;;;2.29;;
71176;SDS011;58877;51.992;4.504;2023-05-19T10:53:21;2.55;;;2.45;;
71176;SDS011;58877;51.992;4.504;2023-05-19T10:55:55;2.06;;;2.01;;
71176;SDS011;58877;51.992;4.504;2023-05-19T11:01:14;2.28;;;2.28;;
71176;SDS011;58877;51.992;4.504;2023-05-19T11:03:51;2.26;;;2.21;;
71176;SDS011;58877;51.992;4.504;2023-05-19T11:09:18;2.74;;;2.64;;
71176;SDS011;58877;51.992;4.504;2023-05-19T11:11:48;2.54;;;2.44;;
71176;SDS011;58877;51.992;4.504;2023-05-19T11:14:24;2.37;;;2.27;;
71176;SDS011;58877;51.992;4.504;2023-05-19T11:16:56;2.85;;;2.75;;
71176;SDS011;58877;51.992;4.504;2023-05-19T11:19:30;2.46;;;2.39;;
71176;SDS011;58877;51.992;4.504;2023-05-19T11:22:09;2.63;;;2.57;;
71176;SDS011;58877;51.992;4.504;2023-05-19T11:30:03;2.94;;;2.93;;
71176;SDS011;58877;51.992;4.504;2023-05-19T11:32:45;2.61;;;2.61;;
71176;SDS011;58877;51.992;4.504;2023-05-19T11:35:15;3.09;;;3.09;;
71176;SDS011;58877;51.992;4.504;2023-05-19T11:37:45;3.40;;;3.39;;
71176;SDS011;58877;51.992;4.504;2023-05-19T11:40:16;3.16;;;3.10;;
71176;SDS011;58877;51.992;4.504;2023-05-19T11:42:48;3.43;;;3.37;;
71176;SDS011;58877;51.992;4.504;2023-05-19T11:45:13;3.71;;;3.55;;
71176;SDS011;58877;51.992;4.504;2023-05-19T11:47:40;3.03;;;2.97;;
71176;SDS011;58877;51.992;4.504;2023-05-19T11:50:07;3.36;;;3.34;;
71176;SDS011;58877;51.992;4.504;2023-05-19T11:52:35;3.29;;;3.19;;
71176;SDS011;58877;51.992;4.504;2023-05-19T11:55:01;3.21;;;3.13;;
71176;SDS011;58877;51.992;4.504;2023-05-19T11:57:26;3.34;;;3.28;;
71176;SDS011;58877;51.992;4.504;2023-05-19T11:59:52;3.41;;;3.37;;
71176;SDS011;58877;51.992;4.504;2023-05-19T12:02:29;3.35;;;3.30;;
71176;SDS011;58877;51.992;4.504;2023-05-19T12:04:55;3.37;;;3.31;;
71176;SDS011;58877;51.992;4.504;2023-05-19T12:07:22;3.73;;;3.65;;
71176;SDS011;58877;51.992;4.504;2023-05-19T12:09:51;3.54;;;3.47;;
71176;SDS011;58877;51.992;4.504;2023-05-19T12:12:20;3.06;;;3.02;;
71176;SDS011;58877;51.992;4.504;2023-05-19T12:14:50;2.75;;;2.73;;
71176;SDS011;58877;51.992;4.504;2023-05-19T12:17:20;3.15;;;3.15;;
71176;SDS011;58877;51.992;4.504;2023-05-19T12:19:48;2.80;;;2.79;;
71176;SDS011;58877;51.992;4.504;2023-05-19T12:22:16;3.10;;;3.10;;
71176;SDS011;58877;51.992;4.504;2023-05-19T12:24:43;3.62;;;3.57;;
71176;SDS011;58877;51.992;4.504;2023-05-19T12:27:18;3.43;;;3.36;;
71176;SDS011;58877;51.992;4.504;2023-05-19T12:29:52;3.53;;;3.44;;
71176;SDS011;58877;51.992;4.504;2023-05-19T12:32:23;3.53;;;3.37;;
71176;SDS011;58877;51.992;4.504;2023-05-19T12:34:50;3.26;;;3.19;;
71176;SDS011;58877;51.992;4.504;2023-05-19T12:37:16;3.61;;;3.55;;
71176;SDS011;58877;51.992;4.504;2023-05-19T12:39:43;3.44;;;3.38;;
71176;SDS011;58877;51.992;4.504;2023-05-19T12:42:13;3.37;;;3.31;;
71176;SDS011;58877;51.992;4.504;2023-05-19T12:44:47;3.45;;;3.44;;
71176;SDS011;58877;51.992;4.504;2023-05-19T12:47:16;3.46;;;3.44;;
71176;SDS011;58877;51.992;4.504;2023-05-19T12:52:44;3.32;;;3.26;;
71176;SDS011;58877;51.992;4.504;2023-05-19T12:55:13;3.53;;;3.49;;
71176;SDS011;58877;51.992;4.504;2023-05-19T12:57:41;3.35;;;3.33;;
71176;SDS011;58877;51.992;4.504;2023-05-19T13:00:16;3.30;;;3.30;;
71176;SDS011;58877;51.992;4.504;2023-05-19T13:05:29;3.80;;;3.80;;
71176;SDS011;58877;51.992;4.504;2023-05-19T13:08:00;3.24;;;3.24;;
71176;SDS011;58877;51.992;4.504;2023-05-19T13:10:34;3.40;;;3.40;;
71176;SDS011;58877;51.992;4.504;2023-05-19T13:13:02;3.12;;;3.12;;
71176;SDS011;58877;51.992;4.504;2023-05-19T13:15:30;3.24;;;3.21;;
71176;SDS011;58877;51.992;4.504;2023-05-19T13:18:01;3.70;;;3.67;;
71176;SDS011;58877;51.992;4.504;2023-05-19T13:20:30;3.40;;;3.40;;
71176;SDS011;58877;51.992;4.504;2023-05-19T13:22:57;3.30;;;3.30;;
71176;SDS011;58877;51.992;4.504;2023-05-19T13:25:23;3.40;;;3.35;;
71176;SDS011;58877;51.992;4.504;2023-05-19T13:27:50;3.40;;;3.36;;
71176;SDS011;58877;51.992;4.504;2023-05-19T13:30:16;3.19;;;3.18;;
71176;SDS011;58877;51.992;4.504;2023-05-19T13:32:43;3.12;;;3.11;;
71176;SDS011;58877;51.992;4.504;2023-05-19T13:35:10;3.56;;;3.55;;
71176;SDS011;58877;51.992;4.504;2023-05-19T13:37:37;3.24;;;3.21;;
71176;SDS011;58877;51.992;4.504;2023-05-19T13:40:03;3.29;;;3.29;;
71176;SDS011;58877;51.992;4.504;2023-05-19T13:42:30;3.07;;;3.06;;
71176;SDS011;58877;51.992;4.504;2023-05-19T13:44:57;3.21;;;3.21;;
71176;SDS011;58877;51.992;4.504;2023-05-19T13:47:23;3.13;;;3.13;;
71176;SDS011;58877;51.992;4.504;2023-05-19T13:49:50;3.35;;;3.35;;
71176;SDS011;58877;51.992;4.504;2023-05-19T13:52:16;3.05;;;3.00;;
71176;SDS011;58877;51.992;4.504;2023-05-19T13:54:42;3.03;;;3.00;;
71176;SDS011;58877;51.992;4.504;2023-05-19T13:57:09;2.74;;;2.73;;
71176;SDS011;58877;51.992;4.504;2023-05-19T13:59:34;2.98;;;2.98;;
71176;SDS011;58877;51.992;4.504;2023-05-19T14:02:00;3.00;;;3.00;;
71176;SDS011;58877;51.992;4.504;2023-05-19T14:04:30;3.28;;;3.28;;
71176;SDS011;58877;51.992;4.504;2023-05-19T14:06:56;2.95;;;2.95;;
71176;SDS011;58877;51.992;4.504;2023-05-19T14:09:22;3.21;;;3.16;;
71176;SDS011;58877;51.992;4.504;2023-05-19T14:11:49;3.12;;;3.08;;
71176;SDS011;58877;51.992;4.504;2023-05-19T14:14:18;2.71;;;2.65;;
71176;SDS011;58877;51.992;4.504;2023-05-19T14:16:44;2.70;;;2.66;;
71176;SDS011;58877;51.992;4.504;2023-05-19T14:19:13;2.75;;;2.72;;
71176;SDS011;58877;51.992;4.504;2023-05-19T14:21:38;2.92;;;2.92;;
71176;SDS011;58877;51.992;4.504;2023-05-19T14:24:05;2.70;;;2.69;;
71176;SDS011;58877;51.992;4.504;2023-05-19T14:26:30;2.62;;;2.58;;
71176;SDS011;58877;51.992;4.504;2023-05-19T14:28:56;3.05;;;3.03;;
71176;SDS011;58877;51.992;4.504;2023-05-19T14:31:22;2.72;;;2.72;;
71176;SDS011;58877;51.992;4.504;2023-05-19T14:33:48;2.84;;;2.84;;
71176;SDS011;58877;51.992;4.504;2023-05-19T14:36:25;2.90;;;2.88;;
71176;SDS011;58877;51.992;4.504;2023-05-19T14:38:59;2.69;;;2.67;;
71176;SDS011;58877;51.992;4.504;2023-05-19T14:41:26;2.69;;;2.69;;
71176;SDS011;58877;51.992;4.504;2023-05-19T14:43:52;2.83;;;2.83;;
71176;SDS011;58877;51.992;4.504;2023-05-19T14:46:17;3.22;;;3.22;;
71176;SDS011;58877;51.992;4.504;2023-05-19T14:48:43;2.84;;;2.84;;
71176;SDS011;58877;51.992;4.504;2023-05-19T14:51:08;2.86;;;2.84;;
71176;SDS011;58877;51.992;4.504;2023-05-19T14:53:34;2.77;;;2.77;;
71176;SDS011;58877;51.992;4.504;2023-05-19T14:56:00;3.19;;;3.19;;
71176;SDS011;58877;51.992;4.504;2023-05-19T14:58:25;2.75;;;2.75;;
71176;SDS011;58877;51.992;4.504;2023-05-19T15:00:51;3.00;;;3.00;;
71176;SDS011;58877;51.992;4.504;2023-05-19T15:03:17;2.87;;;2.87;;
71176;SDS011;58877;51.992;4.504;2023-05-19T15:05:42;2.99;;;2.99;;
71176;SDS011;58877;51.992;4.504;2023-05-19T15:08:09;2.92;;;2.92;;
71176;SDS011;58877;51.992;4.504;2023-05-19T15:10:35;2.73;;;2.73;;
71176;SDS011;58877;51.992;4.504;2023-05-19T15:13:01;3.02;;;3.01;;
71176;SDS011;58877;51.992;4.504;2023-05-19T15:15:28;3.07;;;2.99;;
71176;SDS011;58877;51.992;4.504;2023-05-19T15:17:55;2.50;;;2.45;;
71176;SDS011;58877;51.992;4.504;2023-05-19T15:20:20;2.91;;;2.83;;
71176;SDS011;58877;51.992;4.504;2023-05-19T15:22:46;2.82;;;2.76;;
71176;SDS011;58877;51.992;4.504;2023-05-19T15:25:12;2.52;;;2.51;;
71176;SDS011;58877;51.992;4.504;2023-05-19T15:27:37;2.47;;;2.47;;
71176;SDS011;58877;51.992;4.504;2023-05-19T15:30:07;3.09;;;3.09;;
71176;SDS011;58877;51.992;4.504;2023-05-19T15:32:33;2.68;;;2.67;;
71176;SDS011;58877;51.992;4.504;2023-05-19T15:34:59;2.74;;;2.71;;
71176;SDS011;58877;51.992;4.504;2023-05-19T15:37:25;2.58;;;2.57;;
71176;SDS011;58877;51.992;4.504;2023-05-19T15:39:50;2.58;;;2.57;;
71176;SDS011;58877;51.992;4.504;2023-05-19T15:42:16;2.81;;;2.79;;
71176;SDS011;58877;51.992;4.504;2023-05-19T15:44:41;2.51;;;2.47;;
71176;SDS011;58877;51.992;4.504;2023-05-19T15:47:10;2.61;;;2.57;;
71176;SDS011;58877;51.992;4.504;2023-05-19T15:49:36;2.74;;;2.69;;
71176;SDS011;58877;51.992;4.504;2023-05-19T15:52:02;2.53;;;2.46;;
71176;SDS011;58877;51.992;4.504;2023-05-19T15:54:31;2.45;;;2.39;;